createdAt,value
2023-03-02T00:01:42.284Z,115.30
2023-03-02T00:04:38.607Z,105.80
2023-03-02T00:07:32.220Z,103.90
2023-03-02T00:10:17.537Z,111.57
2023-03-02T00:13:03.293Z,100.43
2023-03-02T00:16:08.756Z,101.35
2023-03-02T00:18:54.993Z,103.22
2023-03-02T00:21:41.192Z,86.50
2023-03-02T00:24:26.883Z,79.70
2023-03-02T00:27:12.809Z,65.18
2023-03-02T00:29:58.560Z,29.35
2023-03-02T00:32:45.712Z,29.42
2023-03-02T00:35:31.339Z,45.72
2023-03-02T00:38:17.248Z,52.72
2023-03-02T00:41:02.567Z,64.20
2023-03-02T00:43:48.862Z,66.18
2023-03-02T00:46:35.244Z,43.33
2023-03-02T00:49:20.860Z,47.20
2023-03-02T00:52:06.469Z,31.88
2023-03-02T00:54:52.205Z,34.85
2023-03-02T00:57:37.824Z,31.92
2023-03-02T01:00:24.408Z,46.90
2023-03-02T01:03:10.209Z,49.80
2023-03-02T01:05:56.325Z,34.03
2023-03-02T01:08:41.526Z,24.30
2023-03-02T01:11:27.243Z,25.95
2023-03-02T01:14:12.761Z,30.83
2023-03-02T01:16:58.689Z,23.02
2023-03-02T01:19:44.614Z,27.27
2023-03-02T01:22:30.171Z,21.75
2023-03-02T01:25:16.065Z,15.43
2023-03-02T01:28:01.652Z,19.77
2023-03-02T01:30:47.685Z,16.45
2023-03-02T01:33:33.300Z,19.50
2023-03-02T01:36:19.588Z,28.55
2023-03-02T01:39:05.196Z,23.90
2023-03-02T01:41:52.707Z,25.15
2023-03-02T01:44:51.231Z,26.98
2023-03-02T01:47:39.974Z,22.00
2023-03-02T01:50:32.850Z,22.05
2023-03-02T01:53:18.745Z,23.10
2023-03-02T01:56:05.731Z,33.97
2023-03-02T01:58:54.692Z,32.85
2023-03-02T02:01:44.364Z,26.70
2023-03-02T02:04:32.300Z,24.38
2023-03-02T02:07:18.527Z,23.83
2023-03-02T02:10:05.292Z,25.27
2023-03-02T02:12:51.082Z,34.08
2023-03-02T02:15:38.539Z,30.17
2023-03-02T02:18:25.964Z,35.33
2023-03-02T02:21:11.830Z,32.65
2023-03-02T02:24:22.545Z,30.48
2023-03-02T02:27:08.442Z,41.03
2023-03-02T02:29:55.140Z,36.45
2023-03-02T02:32:43.459Z,29.60
2023-03-02T02:35:33.340Z,43.72
2023-03-02T02:38:21.456Z,42.65
2023-03-02T02:41:16.072Z,60.00
2023-03-02T02:44:02.591Z,62.30
2023-03-02T02:46:48.154Z,53.10
2023-03-02T02:49:40.332Z,60.25
2023-03-02T02:52:28.848Z,59.88
2023-03-02T02:55:19.206Z,46.80
2023-03-02T02:58:21.684Z,48.30
2023-03-02T03:01:08.329Z,42.40
2023-03-02T03:03:58.533Z,47.30
2023-03-02T03:07:13.266Z,54.30
2023-03-02T03:10:25.812Z,55.72
2023-03-02T03:13:13.107Z,49.30
2023-03-02T03:16:01.591Z,51.47
2023-03-02T03:18:51.552Z,49.08
2023-03-02T03:21:37.842Z,50.42
2023-03-02T03:24:27.022Z,50.92
2023-03-02T03:27:15.737Z,53.13
2023-03-02T03:30:02.247Z,57.35
2023-03-02T03:32:50.837Z,62.00
2023-03-02T03:35:36.999Z,66.45
2023-03-02T03:38:22.938Z,54.90
2023-03-02T03:41:09.097Z,59.58
2023-03-02T03:43:54.978Z,64.13
2023-03-02T03:46:40.433Z,63.00
2023-03-02T03:49:26.456Z,57.50
2023-03-02T03:52:13.679Z,64.05
2023-03-02T03:55:02.013Z,59.67
2023-03-02T03:57:48.678Z,69.63
2023-03-02T04:00:35.432Z,54.97
2023-03-02T04:03:28.068Z,52.78
2023-03-02T04:06:19.231Z,65.53
2023-03-02T04:09:07.233Z,139.40
2023-03-02T04:11:54.838Z,164.35
2023-03-02T04:14:40.734Z,180.40
2023-03-02T04:17:27.745Z,137.35
2023-03-02T04:20:17.881Z,98.25
2023-03-02T04:23:07.865Z,62.47
2023-03-02T04:25:53.669Z,50.58
2023-03-02T04:28:41.809Z,55.40
2023-03-02T04:31:28.382Z,43.13
2023-03-02T04:34:14.842Z,41.72
2023-03-02T04:37:02.320Z,55.50
2023-03-02T04:39:51.222Z,40.90
2023-03-02T04:42:37.218Z,43.25
2023-03-02T04:45:22.933Z,64.85
2023-03-02T04:48:08.372Z,57.90
2023-03-02T04:50:53.890Z,49.60
2023-03-02T04:53:39.591Z,47.50
2023-03-02T04:56:25.988Z,52.40
2023-03-02T04:59:11.642Z,52.53
2023-03-02T05:02:00.795Z,52.10
2023-03-02T05:04:46.395Z,49.20
2023-03-02T05:07:31.918Z,48.25
2023-03-02T05:10:18.324Z,49.80
2023-03-02T05:13:05.748Z,55.40
2023-03-02T05:15:51.913Z,63.15
2023-03-02T05:18:37.277Z,68.82
2023-03-02T05:21:22.979Z,70.50
2023-03-02T05:24:08.479Z,64.50
2023-03-02T05:26:54.004Z,74.00
2023-03-02T05:29:39.379Z,98.35
2023-03-02T05:32:25.035Z,101.63
2023-03-02T05:35:10.860Z,78.93
2023-03-02T05:37:56.606Z,80.70
2023-03-02T05:40:42.641Z,85.82
2023-03-02T05:43:28.221Z,74.00
2023-03-02T05:46:13.903Z,75.07
2023-03-02T05:48:59.048Z,51.40
2023-03-02T05:51:44.632Z,54.58
2023-03-02T05:54:30.184Z,49.38
2023-03-02T05:57:15.503Z,41.78
2023-03-02T06:00:01.046Z,45.85
2023-03-02T06:02:46.631Z,45.78
2023-03-02T06:05:32.739Z,41.42
2023-03-02T06:08:19.940Z,41.63
2023-03-02T06:11:05.298Z,37.70
2023-03-02T06:13:50.853Z,37.10
2023-03-02T06:16:47.493Z,39.90
2023-03-02T06:22:47.130Z,29.73
2023-03-02T06:25:33.062Z,42.55
2023-03-02T06:28:20.159Z,51.47
2023-03-02T06:31:05.632Z,40.80
2023-03-02T06:33:51.297Z,42.28
2023-03-02T06:36:40.052Z,37.17
2023-03-02T06:39:25.776Z,34.55
2023-03-02T06:42:11.099Z,42.78
2023-03-02T06:44:56.774Z,37.00
2023-03-02T06:47:42.177Z,35.10
2023-03-02T06:50:28.695Z,42.88
2023-03-02T06:53:17.617Z,44.95
2023-03-02T06:56:03.658Z,38.25
2023-03-02T06:58:49.168Z,37.03
2023-03-02T07:01:36.310Z,42.85
2023-03-02T07:04:21.921Z,36.75
2023-03-02T07:07:08.492Z,33.80
2023-03-02T07:09:54.320Z,47.55
2023-03-02T07:12:41.210Z,38.00
2023-03-02T07:15:26.603Z,34.58
2023-03-02T07:18:12.425Z,34.03
2023-03-02T07:20:58.122Z,55.30
2023-03-02T07:23:43.748Z,55.65
2023-03-02T07:26:29.128Z,62.05
2023-03-02T07:29:14.493Z,39.17
2023-03-02T07:32:00.074Z,42.75
2023-03-02T07:34:45.623Z,43.63
2023-03-02T07:37:30.975Z,40.90
2023-03-02T07:40:17.083Z,39.90
2023-03-02T07:43:02.473Z,44.30
2023-03-02T07:45:48.081Z,35.55
2023-03-02T07:48:33.981Z,32.80
2023-03-02T07:51:26.141Z,47.25
2023-03-02T07:54:11.597Z,39.58
2023-03-02T07:56:58.084Z,43.00
2023-03-02T07:59:44.646Z,43.60
2023-03-02T08:02:30.931Z,36.83
2023-03-02T08:05:22.261Z,37.58
2023-03-02T08:08:08.044Z,36.00
2023-03-02T08:10:53.672Z,40.45
2023-03-02T08:13:39.904Z,46.33
2023-03-02T08:16:26.787Z,47.80
2023-03-02T08:19:12.875Z,44.72
2023-03-02T08:21:58.756Z,44.55
2023-03-02T08:24:48.013Z,49.25
2023-03-02T08:27:34.353Z,45.42
2023-03-02T08:33:13.572Z,52.97
2023-03-02T08:36:05.351Z,44.55
2023-03-02T08:38:54.172Z,52.58
2023-03-02T08:41:39.722Z,48.42
2023-03-02T08:44:25.003Z,49.65
2023-03-02T08:47:11.439Z,50.08
2023-03-02T08:49:57.353Z,46.53
2023-03-02T08:52:43.687Z,51.15
2023-03-02T08:55:30.710Z,45.03
2023-03-02T08:58:16.023Z,45.88
2023-03-02T09:01:01.686Z,44.35
2023-03-02T09:03:47.544Z,46.40
2023-03-02T09:06:44.273Z,44.63
2023-03-02T09:09:29.721Z,41.15
2023-03-02T09:12:15.467Z,44.95
2023-03-02T09:15:01.630Z,39.97
2023-03-02T09:17:47.153Z,38.45
2023-03-02T09:20:33.972Z,37.35
2023-03-02T09:23:20.592Z,42.42
2023-03-02T09:26:06.127Z,36.25
2023-03-02T09:28:51.580Z,38.70
2023-03-02T09:31:38.038Z,37.30
2023-03-02T09:34:23.990Z,37.40
2023-03-02T09:37:09.925Z,40.85
2023-03-02T09:39:55.520Z,37.42
2023-03-02T09:43:05.831Z,44.38
2023-03-02T09:45:56.183Z,32.53
2023-03-02T09:49:18.912Z,25.52
2023-03-02T09:54:53.429Z,24.00
2023-03-02T09:57:39.945Z,23.63
2023-03-02T10:00:36.686Z,30.48
2023-03-02T10:03:32.382Z,22.13
2023-03-02T10:06:19.735Z,23.05
2023-03-02T10:09:05.357Z,29.65
2023-03-02T10:12:08.197Z,27.05
2023-03-02T10:15:04.127Z,23.63
2023-03-02T10:18:02.213Z,26.88
2023-03-02T10:20:53.801Z,23.95
2023-03-02T10:23:42.572Z,22.75
2023-03-02T10:26:40.718Z,25.10
2023-03-02T10:29:53.442Z,36.35
2023-03-02T10:32:46.063Z,18.92
2023-03-02T10:35:32.530Z,22.33
2023-03-02T10:38:24.375Z,19.33
2023-03-02T10:41:18.977Z,21.25
2023-03-02T10:44:08.184Z,23.20
2023-03-02T10:46:54.273Z,20.70
2023-03-02T10:49:43.584Z,17.77
2023-03-02T10:52:34.921Z,30.90
2023-03-02T10:55:21.487Z,21.52
2023-03-02T10:58:34.955Z,23.67
2023-03-02T11:01:21.739Z,15.20
2023-03-02T11:04:15.022Z,22.95
2023-03-02T11:07:31.973Z,18.20
2023-03-02T11:10:29.991Z,20.83
2023-03-02T11:13:29.828Z,13.07
2023-03-02T11:16:18.624Z,13.93
2023-03-02T11:19:12.095Z,10.73
2023-03-02T11:22:03.226Z,15.98
2023-03-02T11:24:55.139Z,14.07
2023-03-02T11:27:44.232Z,13.88
2023-03-02T11:30:34.183Z,8.95
2023-03-02T11:33:29.945Z,12.23
2023-03-02T11:36:20.756Z,14.10
2023-03-02T11:39:14.884Z,10.35
2023-03-02T11:42:00.338Z,11.40
2023-03-02T11:44:50.307Z,10.35
2023-03-02T11:47:37.799Z,10.32
2023-03-02T11:50:23.703Z,11.82
2023-03-02T11:53:14.867Z,11.57
2023-03-02T11:56:00.497Z,12.10
2023-03-02T11:58:52.995Z,13.52
2023-03-02T12:01:40.328Z,14.93
2023-03-02T12:04:28.968Z,14.50
2023-03-02T12:07:19.403Z,12.23
2023-03-02T12:10:28.582Z,13.00
2023-03-02T12:13:20.080Z,8.63
2023-03-02T12:16:20.568Z,8.85
2023-03-02T12:19:26.293Z,7.88
2023-03-02T12:22:14.609Z,7.40
2023-03-02T12:25:20.290Z,7.63
2023-03-02T12:28:06.026Z,9.88
2023-03-02T12:31:08.402Z,8.90
2023-03-02T12:33:54.098Z,8.25
2023-03-02T12:36:44.063Z,21.75
2023-03-02T12:40:03.358Z,10.63
2023-03-02T12:43:01.674Z,10.75
2023-03-02T12:46:27.994Z,9.55
2023-03-02T12:49:44.146Z,10.73
2023-03-02T12:52:35.508Z,7.53
2023-03-02T12:55:21.139Z,12.05
2023-03-02T12:58:18.784Z,10.73
2023-03-02T13:01:05.939Z,9.38
2023-03-02T13:03:53.601Z,9.63
2023-03-02T13:06:40.198Z,8.80
2023-03-02T13:09:26.543Z,15.18
2023-03-02T13:12:15.253Z,14.40
2023-03-02T13:15:01.179Z,12.52
2023-03-02T13:17:55.555Z,10.23
2023-03-02T13:20:41.185Z,12.93
2023-03-02T13:23:29.175Z,14.00
2023-03-02T13:26:34.598Z,13.20
2023-03-02T13:29:20.736Z,10.77
2023-03-02T13:32:27.010Z,10.25
2023-03-02T13:35:24.381Z,13.38
2023-03-02T13:38:18.460Z,19.77
2023-03-02T13:41:04.047Z,12.90
2023-03-02T13:43:49.838Z,10.07
2023-03-02T13:46:39.199Z,12.73
2023-03-02T13:49:29.444Z,9.55
2023-03-02T13:52:29.777Z,17.95
2023-03-02T13:55:17.623Z,16.30
2023-03-02T13:58:03.411Z,14.52
2023-03-02T14:00:50.153Z,14.30
2023-03-02T14:03:36.042Z,11.00
2023-03-02T14:06:21.571Z,10.75
2023-03-02T14:09:07.044Z,11.27
2023-03-02T14:11:55.431Z,21.85
2023-03-02T14:14:41.302Z,21.00
2023-03-02T14:17:28.107Z,15.68
2023-03-02T14:20:19.631Z,14.10
2023-03-02T14:23:06.986Z,12.38
2023-03-02T14:25:55.299Z,19.38
2023-03-02T14:28:40.901Z,13.70
2023-03-02T14:31:27.467Z,13.57
2023-03-02T14:34:18.228Z,14.13
2023-03-02T14:37:07.069Z,12.88
2023-03-02T14:39:55.624Z,14.23
2023-03-02T14:42:41.721Z,11.85
2023-03-02T14:45:29.270Z,13.18
2023-03-02T14:48:16.101Z,9.82
2023-03-02T14:51:04.202Z,10.95
2023-03-02T14:53:52.615Z,11.57
2023-03-02T14:56:50.181Z,16.05
2023-03-02T14:59:35.970Z,18.02
2023-03-02T15:02:25.982Z,13.70
2023-03-02T15:05:12.015Z,10.25
2023-03-02T15:07:58.758Z,16.83
2023-03-02T15:10:46.785Z,9.20
2023-03-02T15:13:32.526Z,11.70
2023-03-02T15:16:18.224Z,10.02
2023-03-02T15:19:03.918Z,12.50
2023-03-02T15:21:49.661Z,10.68
2023-03-02T15:24:35.453Z,14.18
2023-03-02T15:27:23.074Z,20.02
2023-03-02T15:30:09.362Z,18.63
2023-03-02T15:32:54.854Z,23.20
2023-03-02T15:35:40.971Z,20.55
2023-03-02T15:38:26.456Z,21.02
2023-03-02T15:41:13.791Z,20.33
2023-03-02T15:43:59.289Z,25.05
2023-03-02T15:46:44.936Z,20.30
2023-03-02T15:49:32.802Z,22.42
2023-03-02T15:52:20.121Z,22.73
2023-03-02T15:55:05.560Z,23.98
2023-03-02T15:57:51.497Z,29.05
2023-03-02T16:00:37.939Z,33.42
2023-03-02T16:03:24.926Z,60.75
2023-03-02T16:06:10.330Z,76.70
2023-03-02T16:08:55.949Z,65.28
2023-03-02T16:11:41.659Z,53.13
2023-03-02T16:14:27.175Z,45.92
2023-03-02T16:17:12.734Z,48.60
2023-03-02T16:19:58.252Z,51.60
2023-03-02T16:23:01.769Z,88.38
2023-03-02T16:25:51.085Z,63.08
2023-03-02T16:28:37.516Z,45.53
2023-03-02T16:31:26.903Z,44.90
2023-03-02T16:34:12.942Z,33.53
2023-03-02T16:37:00.331Z,38.38
2023-03-02T16:39:45.835Z,43.20
2023-03-02T16:42:31.644Z,40.85
2023-03-02T16:45:18.712Z,33.97
2023-03-02T16:48:05.620Z,49.95
2023-03-02T16:51:00.126Z,46.78
2023-03-02T16:53:46.011Z,34.45
2023-03-02T16:56:31.395Z,41.30
2023-03-02T16:59:17.266Z,50.13
2023-03-02T17:02:02.925Z,45.00
2023-03-02T17:04:48.551Z,36.17
2023-03-02T17:07:34.110Z,33.63
2023-03-02T17:10:21.883Z,38.83
2023-03-02T17:13:08.212Z,42.65
2023-03-02T17:15:53.867Z,46.45
2023-03-02T17:18:41.031Z,58.50
2023-03-02T17:21:27.051Z,40.90
2023-03-02T17:24:12.852Z,30.75
2023-03-02T17:26:58.697Z,32.17
2023-03-02T17:29:44.496Z,38.50
2023-03-02T17:32:30.083Z,40.58
2023-03-02T17:35:16.696Z,46.20
2023-03-02T17:38:03.045Z,29.02
2023-03-02T17:40:48.705Z,32.45
2023-03-02T17:43:38.018Z,29.38
2023-03-02T17:46:26.805Z,35.00
2023-03-02T17:49:13.315Z,27.60
2023-03-02T17:51:58.864Z,30.55
2023-03-02T17:54:44.929Z,36.80
2023-03-02T17:57:30.678Z,56.53
2023-03-02T18:00:18.926Z,93.20
2023-03-02T18:03:06.902Z,42.72
2023-03-02T18:05:53.139Z,50.25
2023-03-02T18:08:38.934Z,48.55
2023-03-02T18:11:25.602Z,50.95
2023-03-02T18:14:16.823Z,73.25
2023-03-02T18:17:05.027Z,85.43
2023-03-02T18:19:50.758Z,61.80
2023-03-02T18:22:36.187Z,60.63
2023-03-02T18:25:21.792Z,56.92
2023-03-02T18:28:07.339Z,30.38
2023-03-02T18:30:52.788Z,22.67
2023-03-02T18:33:38.688Z,36.60
2023-03-02T18:36:24.392Z,39.85
2023-03-02T18:39:10.672Z,32.97
2023-03-02T18:41:57.057Z,48.25
2023-03-02T18:44:44.219Z,43.00
2023-03-02T18:47:37.693Z,38.55
2023-03-02T18:50:24.150Z,34.80
2023-03-02T18:53:12.776Z,33.85
2023-03-02T18:55:59.745Z,32.53
2023-03-02T18:58:45.852Z,37.08
2023-03-02T19:01:32.103Z,34.40
2023-03-02T19:04:17.517Z,43.25
2023-03-02T19:07:04.424Z,33.45
2023-03-02T19:09:54.751Z,38.60
2023-03-02T19:13:12.955Z,45.83
2023-03-02T19:16:00.838Z,34.92
2023-03-02T19:18:46.263Z,40.40
2023-03-02T19:21:32.391Z,34.95
2023-03-02T19:24:17.894Z,34.35
2023-03-02T19:27:04.231Z,43.35
2023-03-02T19:29:50.406Z,34.38
2023-03-02T19:32:37.315Z,37.25
2023-03-02T19:35:26.499Z,38.72
2023-03-02T19:38:12.825Z,40.45
2023-03-02T19:41:00.838Z,31.95
2023-03-02T19:43:46.540Z,40.28
2023-03-02T19:46:32.241Z,54.80
2023-03-02T19:49:18.254Z,51.17
2023-03-02T19:52:05.283Z,59.40
2023-03-02T19:54:50.939Z,57.72
2023-03-02T19:57:37.691Z,92.10
2023-03-02T20:00:23.950Z,89.82
2023-03-02T20:03:09.909Z,80.22
2023-03-02T20:05:58.908Z,73.60
2023-03-02T20:08:48.260Z,90.57
2023-03-02T20:11:34.739Z,96.78
2023-03-02T20:14:33.463Z,101.40
2023-03-02T20:17:19.865Z,88.90
2023-03-02T20:20:08.249Z,94.78
2023-03-02T20:22:53.985Z,123.80
2023-03-02T20:25:39.416Z,155.85
2023-03-02T20:28:25.542Z,179.82
2023-03-02T20:31:13.146Z,209.07
2023-03-02T20:33:59.272Z,181.32
2023-03-02T20:36:45.835Z,118.05
2023-03-02T20:39:35.443Z,59.10
2023-03-02T20:42:21.540Z,54.17
2023-03-02T20:45:09.304Z,73.30
2023-03-02T20:47:57.147Z,83.45
2023-03-02T20:50:43.232Z,85.00
2023-03-02T20:53:29.023Z,98.30
2023-03-02T20:56:18.021Z,93.00
2023-03-02T20:59:04.252Z,88.65
2023-03-02T21:01:51.050Z,70.47
2023-03-02T21:04:36.586Z,75.20
2023-03-02T21:07:22.028Z,49.40
2023-03-02T21:10:09.746Z,40.85
2023-03-02T21:12:55.587Z,47.10
2023-03-02T21:15:41.207Z,82.68
2023-03-02T21:18:27.341Z,98.15
2023-03-02T21:21:13.454Z,104.85
2023-03-02T21:24:00.267Z,114.43
2023-03-02T21:26:48.040Z,74.35
2023-03-02T21:29:33.712Z,59.30
2023-03-02T21:32:19.265Z,53.80
2023-03-02T21:35:04.889Z,52.45
2023-03-02T21:37:53.716Z,55.45
2023-03-02T21:40:45.805Z,62.20
2023-03-02T21:43:31.401Z,77.70
2023-03-02T21:46:21.866Z,74.60
2023-03-02T21:49:07.602Z,62.75
2023-03-02T21:51:53.209Z,51.50
2023-03-02T21:54:38.702Z,45.33
2023-03-02T21:57:24.285Z,39.85
2023-03-02T22:00:18.487Z,59.42
2023-03-02T22:03:04.201Z,58.22
2023-03-02T22:05:49.988Z,68.63
2023-03-02T22:08:37.513Z,50.42
2023-03-02T22:11:25.666Z,51.05
2023-03-02T22:14:13.808Z,69.55
2023-03-02T22:16:59.458Z,80.75
2023-03-02T22:19:45.670Z,42.05
2023-03-02T22:22:31.484Z,35.65
2023-03-02T22:25:18.671Z,45.78
2023-03-02T22:28:22.598Z,41.05
2023-03-02T22:31:18.494Z,49.08
2023-03-02T22:34:13.220Z,48.05
2023-03-02T22:37:09.641Z,63.28
2023-03-02T22:40:00.830Z,61.55
2023-03-02T22:42:46.343Z,64.13
2023-03-02T22:45:31.784Z,76.95
2023-03-02T22:48:20.147Z,80.70
2023-03-02T22:51:22.236Z,74.07
2023-03-02T22:54:18.789Z,68.68
2023-03-02T22:57:04.035Z,81.80
2023-03-02T22:59:49.698Z,65.63
2023-03-02T23:02:40.502Z,54.80
2023-03-02T23:05:34.639Z,48.40
2023-03-02T23:08:30.250Z,54.58
2023-03-02T23:11:18.959Z,72.00
2023-03-02T23:14:29.354Z,84.18
2023-03-02T23:17:20.989Z,100.80
2023-03-02T23:20:10.169Z,99.50
2023-03-02T23:22:56.211Z,94.35
2023-03-02T23:25:41.973Z,92.22
2023-03-02T23:28:27.427Z,98.32
2023-03-02T23:31:13.449Z,99.53
2023-03-02T23:33:59.430Z,108.90
2023-03-02T23:36:44.990Z,102.75
2023-03-02T23:39:30.398Z,107.45
2023-03-02T23:42:15.725Z,103.40
2023-03-02T23:45:01.229Z,109.63
2023-03-02T23:47:46.645Z,102.80
2023-03-02T23:50:32.143Z,95.20
2023-03-02T23:53:17.692Z,107.18
2023-03-02T23:56:03.377Z,101.47
2023-03-02T23:58:48.953Z,104.97
